This is the latest recevied weather packets stored in our database for station/object WD4IXD-WX. If no packets are shown the sender has not sent any weather packets the latest 10 day(s).
| Time | Temp. | Humidity | Pressure | Rain* | Wind** | Luminosity | Snow |
|---|---|---|---|---|---|---|---|
| 1777941004 | 6.67° C | 60% | 1015.1 hPa | 0 mm | - | 19 W/m² | - |
| 1777940703 | 7.22° C | 59% | 1015.2 hPa | 0 mm | - | 19 W/m² | - |
| 1777940404 | 7.22° C | 57% | 1015.4 hPa | 0 mm | - | 19 W/m² | - |
| 1777940103 | 7.22° C | 57% | 1015.3 hPa | 0 mm | - | 30 W/m² | - |
| 1777939804 | 7.22° C | 56% | 1015.2 hPa | 0 mm | - | 40 W/m² | - |
| 1777939503 | 7.22° C | 56% | 1015.4 hPa | 0 mm | - | 60 W/m² | - |
| 1777939204 | 7.22° C | 56% | 1015.2 hPa | 0 mm | - | 74 W/m² | - |
| 1777938903 | 7.22° C | 58% | 1015.2 hPa | 0 mm | - | 91 W/m² | - |
| 1777938604 | 7.22° C | 58% | 1015.1 hPa | 0 mm | - | 127 W/m² | - |
| 1777938303 | 7.22° C | 59% | 1015.1 hPa | 0 mm | - | 114 W/m² | - |
| 1777938004 | 7.22° C | 58% | 1015 hPa | 0 mm | - | 123 W/m² | - |
| 1777937704 | 7.78° C | 55% | 1014.9 hPa | 0 mm | - | 116 W/m² | - |
| 1777937404 | 7.78° C | 51% | 1015 hPa | 0 mm | - | 98 W/m² | - |
| 1777937104 | 8.33° C | 50% | 1014.8 hPa | 0 mm | - | 113 W/m² | - |
| 1777936804 | 8.33° C | 49% | 1014.9 hPa | 0 mm | - | 100 W/m² | - |
| 1777936504 | 8.33° C | 49% | 1014.9 hPa | 0 mm | - | 91 W/m² | - |
| 1777936204 | 8.33° C | 47% | 1014.8 hPa | 0 mm | - | 70 W/m² | - |
| 1777935904 | 8.33° C | 48% | 1014.7 hPa | 0 mm | - | 107 W/m² | - |
| 1777935603 | 8.33° C | 49% | 1014.7 hPa | 0 mm | - | 149 W/m² | - |
| 1777935304 | 8.33° C | 51% | 1014.6 hPa | 0 mm | - | 211 W/m² | - |
| 1777935004 | 7.78° C | 51% | 1014.6 hPa | 0 mm | - | 230 W/m² | - |
| 1777934704 | 8.33° C | 52% | 1014.6 hPa | 0 mm | - | 246 W/m² | - |
| 1777934404 | 8.33° C | 53% | 1014.5 hPa | 0 mm | - | 246 W/m² | - |
| 1777934104 | 8.89° C | 50% | 1014.5 hPa | 0 mm | - | 264 W/m² | - |
| 1777933804 | 10° C | 44% | 1014.5 hPa | 0 mm | - | 211 W/m² | - |
* Rain latest hour (hover to see other rain measurements)
** Current wind speed in m/s (hover to see current wind gust speed)